sensor_id;sensor_type;location;lat;lon;timestamp;P1;durP1;ratioP1;P2;durP2;ratioP2
13951;SDS011;39535;52.192;9.886;2023-08-01T00:01:09;1.77;;;1.07;;
13951;SDS011;39535;52.192;9.886;2023-08-01T00:03:37;1.03;;;1.03;;
13951;SDS011;39535;52.192;9.886;2023-08-01T00:06:03;1.13;;;1.00;;
13951;SDS011;39535;52.192;9.886;2023-08-01T00:08:30;1.63;;;1.20;;
13951;SDS011;39535;52.192;9.886;2023-08-01T00:10:56;1.13;;;1.03;;
13951;SDS011;39535;52.192;9.886;2023-08-01T00:13:24;2.07;;;1.33;;
13951;SDS011;39535;52.192;9.886;2023-08-01T00:15:52;1.10;;;1.10;;
13951;SDS011;39535;52.192;9.886;2023-08-01T00:18:18;1.67;;;1.00;;
13951;SDS011;39535;52.192;9.886;2023-08-01T00:20:46;0.97;;;0.90;;
13951;SDS011;39535;52.192;9.886;2023-08-01T00:23:12;0.90;;;0.90;;
13951;SDS011;39535;52.192;9.886;2023-08-01T00:25:39;3.33;;;1.30;;
13951;SDS011;39535;52.192;9.886;2023-08-01T00:28:05;2.20;;;0.87;;
13951;SDS011;39535;52.192;9.886;2023-08-01T00:30:31;1.00;;;1.00;;
13951;SDS011;39535;52.192;9.886;2023-08-01T00:32:59;0.83;;;0.83;;
13951;SDS011;39535;52.192;9.886;2023-08-01T00:35:26;0.90;;;0.90;;
13951;SDS011;39535;52.192;9.886;2023-08-01T00:37:54;1.67;;;1.00;;
13951;SDS011;39535;52.192;9.886;2023-08-01T00:40:22;1.00;;;0.97;;
13951;SDS011;39535;52.192;9.886;2023-08-01T00:42:53;1.20;;;0.90;;
13951;SDS011;39535;52.192;9.886;2023-08-01T00:45:21;0.93;;;0.90;;
13951;SDS011;39535;52.192;9.886;2023-08-01T00:47:49;1.03;;;0.70;;
13951;SDS011;39535;52.192;9.886;2023-08-01T00:50:19;0.70;;;0.70;;
13951;SDS011;39535;52.192;9.886;2023-08-01T00:52:47;2.90;;;0.73;;
13951;SDS011;39535;52.192;9.886;2023-08-01T00:55:16;0.83;;;0.70;;
13951;SDS011;39535;52.192;9.886;2023-08-01T00:57:43;1.30;;;0.83;;
13951;SDS011;39535;52.192;9.886;2023-08-01T01:00:10;1.57;;;0.90;;
13951;SDS011;39535;52.192;9.886;2023-08-01T01:02:37;0.97;;;0.70;;
13951;SDS011;39535;52.192;9.886;2023-08-01T01:05:04;2.67;;;1.13;;
13951;SDS011;39535;52.192;9.886;2023-08-01T01:07:31;1.83;;;0.73;;
13951;SDS011;39535;52.192;9.886;2023-08-01T01:09:58;1.23;;;0.80;;
13951;SDS011;39535;52.192;9.886;2023-08-01T01:12:26;4.03;;;0.80;;
13951;SDS011;39535;52.192;9.886;2023-08-01T01:14:52;0.70;;;0.70;;
13951;SDS011;39535;52.192;9.886;2023-08-01T01:17:19;1.60;;;0.80;;
13951;SDS011;39535;52.192;9.886;2023-08-01T01:19:45;0.80;;;0.80;;
13951;SDS011;39535;52.192;9.886;2023-08-01T01:22:13;1.80;;;0.63;;
13951;SDS011;39535;52.192;9.886;2023-08-01T01:24:42;1.67;;;0.70;;
13951;SDS011;39535;52.192;9.886;2023-08-01T01:27:10;1.10;;;0.60;;
13951;SDS011;39535;52.192;9.886;2023-08-01T01:29:37;1.37;;;0.60;;
13951;SDS011;39535;52.192;9.886;2023-08-01T01:32:06;0.97;;;0.67;;
13951;SDS011;39535;52.192;9.886;2023-08-01T01:34:33;2.20;;;0.57;;
13951;SDS011;39535;52.192;9.886;2023-08-01T01:37:00;2.90;;;0.60;;
13951;SDS011;39535;52.192;9.886;2023-08-01T01:39:29;1.20;;;0.73;;
13951;SDS011;39535;52.192;9.886;2023-08-01T01:41:56;0.33;;;0.33;;
13951;SDS011;39535;52.192;9.886;2023-08-01T01:44:22;0.60;;;0.50;;
13951;SDS011;39535;52.192;9.886;2023-08-01T01:46:48;0.30;;;0.30;;
13951;SDS011;39535;52.192;9.886;2023-08-01T01:49:15;1.70;;;0.30;;
13951;SDS011;39535;52.192;9.886;2023-08-01T01:51:41;0.80;;;0.50;;
13951;SDS011;39535;52.192;9.886;2023-08-01T01:54:08;0.40;;;0.40;;
13951;SDS011;39535;52.192;9.886;2023-08-01T01:56:35;1.47;;;0.40;;
13951;SDS011;39535;52.192;9.886;2023-08-01T01:59:02;0.43;;;0.30;;
13951;SDS011;39535;52.192;9.886;2023-08-01T02:01:28;1.80;;;0.40;;
13951;SDS011;39535;52.192;9.886;2023-08-01T02:03:55;1.17;;;0.47;;
13951;SDS011;39535;52.192;9.886;2023-08-01T02:06:23;0.50;;;0.40;;
13951;SDS011;39535;52.192;9.886;2023-08-01T02:08:50;0.30;;;0.30;;
13951;SDS011;39535;52.192;9.886;2023-08-01T02:11:16;0.30;;;0.30;;
13951;SDS011;39535;52.192;9.886;2023-08-01T02:13:44;0.40;;;0.30;;
13951;SDS011;39535;52.192;9.886;2023-08-01T02:16:10;0.63;;;0.30;;
13951;SDS011;39535;52.192;9.886;2023-08-01T02:18:37;0.20;;;0.20;;
13951;SDS011;39535;52.192;9.886;2023-08-01T02:21:03;0.27;;;0.13;;
13951;SDS011;39535;52.192;9.886;2023-08-01T02:26:52;1.00;;;0.30;;
13951;SDS011;39535;52.192;9.886;2023-08-01T02:29:19;0.43;;;0.20;;
13951;SDS011;39535;52.192;9.886;2023-08-01T02:31:47;0.43;;;0.30;;
13951;SDS011;39535;52.192;9.886;2023-08-01T02:34:14;0.97;;;0.37;;
13951;SDS011;39535;52.192;9.886;2023-08-01T02:36:40;1.77;;;0.47;;
13951;SDS011;39535;52.192;9.886;2023-08-01T02:39:07;1.17;;;0.50;;
13951;SDS011;39535;52.192;9.886;2023-08-01T02:41:33;1.07;;;0.30;;
13951;SDS011;39535;52.192;9.886;2023-08-01T02:44:00;1.40;;;0.30;;
13951;SDS011;39535;52.192;9.886;2023-08-01T02:46:28;1.77;;;0.40;;
13951;SDS011;39535;52.192;9.886;2023-08-01T02:48:54;0.50;;;0.40;;
13951;SDS011;39535;52.192;9.886;2023-08-01T02:51:21;4.27;;;0.40;;
13951;SDS011;39535;52.192;9.886;2023-08-01T02:53:47;1.53;;;0.50;;
13951;SDS011;39535;52.192;9.886;2023-08-01T02:56:14;4.77;;;0.70;;
13951;SDS011;39535;52.192;9.886;2023-08-01T02:58:40;1.90;;;0.60;;
13951;SDS011;39535;52.192;9.886;2023-08-01T03:01:07;3.63;;;0.80;;
13951;SDS011;39535;52.192;9.886;2023-08-01T03:03:38;1.20;;;0.80;;
13951;SDS011;39535;52.192;9.886;2023-08-01T03:06:08;1.80;;;0.60;;
13951;SDS011;39535;52.192;9.886;2023-08-01T03:08:37;0.70;;;0.40;;
13951;SDS011;39535;52.192;9.886;2023-08-01T03:11:05;0.37;;;0.37;;
13951;SDS011;39535;52.192;9.886;2023-08-01T03:13:31;2.30;;;0.33;;
13951;SDS011;39535;52.192;9.886;2023-08-01T03:15:57;1.73;;;0.27;;
13951;SDS011;39535;52.192;9.886;2023-08-01T03:18:24;0.80;;;0.23;;
13951;SDS011;39535;52.192;9.886;2023-08-01T03:20:51;0.30;;;0.20;;
13951;SDS011;39535;52.192;9.886;2023-08-01T03:23:18;2.87;;;0.30;;
13951;SDS011;39535;52.192;9.886;2023-08-01T03:25:44;0.30;;;0.20;;
13951;SDS011;39535;52.192;9.886;2023-08-01T03:28:11;1.40;;;0.10;;
13951;SDS011;39535;52.192;9.886;2023-08-01T03:30:37;0.20;;;0.20;;
13951;SDS011;39535;52.192;9.886;2023-08-01T03:33:04;0.30;;;0.10;;
13951;SDS011;39535;52.192;9.886;2023-08-01T03:35:30;0.20;;;0.10;;
13951;SDS011;39535;52.192;9.886;2023-08-01T03:37:58;0.30;;;0.30;;
13951;SDS011;39535;52.192;9.886;2023-08-01T03:40:24;0.30;;;0.20;;
13951;SDS011;39535;52.192;9.886;2023-08-01T03:42:51;0.30;;;0.30;;
13951;SDS011;39535;52.192;9.886;2023-08-01T03:45:17;1.30;;;0.20;;
13951;SDS011;39535;52.192;9.886;2023-08-01T03:47:45;0.97;;;0.13;;
13951;SDS011;39535;52.192;9.886;2023-08-01T03:50:12;2.07;;;0.33;;
13951;SDS011;39535;52.192;9.886;2023-08-01T03:52:39;1.10;;;0.37;;
13951;SDS011;39535;52.192;9.886;2023-08-01T03:55:07;0.20;;;0.20;;
13951;SDS011;39535;52.192;9.886;2023-08-01T03:57:33;1.27;;;0.43;;
13951;SDS011;39535;52.192;9.886;2023-08-01T04:00:00;0.87;;;0.20;;
13951;SDS011;39535;52.192;9.886;2023-08-01T04:02:28;1.60;;;0.30;;
13951;SDS011;39535;52.192;9.886;2023-08-01T04:04:54;0.47;;;0.30;;
13951;SDS011;39535;52.192;9.886;2023-08-01T04:07:20;4.43;;;0.60;;
13951;SDS011;39535;52.192;9.886;2023-08-01T04:09:47;0.80;;;0.40;;
13951;SDS011;39535;52.192;9.886;2023-08-01T04:12:14;0.80;;;0.40;;
13951;SDS011;39535;52.192;9.886;2023-08-01T04:14:41;0.57;;;0.30;;
13951;SDS011;39535;52.192;9.886;2023-08-01T04:17:08;0.30;;;0.20;;
13951;SDS011;39535;52.192;9.886;2023-08-01T04:19:35;0.50;;;0.23;;
13951;SDS011;39535;52.192;9.886;2023-08-01T04:22:01;0.40;;;0.20;;
13951;SDS011;39535;52.192;9.886;2023-08-01T04:24:28;0.27;;;0.27;;
13951;SDS011;39535;52.192;9.886;2023-08-01T04:26:56;0.20;;;0.20;;
13951;SDS011;39535;52.192;9.886;2023-08-01T04:29:23;0.50;;;0.20;;
13951;SDS011;39535;52.192;9.886;2023-08-01T04:31:50;0.27;;;0.27;;
13951;SDS011;39535;52.192;9.886;2023-08-01T04:34:16;1.40;;;0.30;;
13951;SDS011;39535;52.192;9.886;2023-08-01T04:36:43;0.13;;;0.13;;
13951;SDS011;39535;52.192;9.886;2023-08-01T04:39:09;0.70;;;0.20;;
13951;SDS011;39535;52.192;9.886;2023-08-01T04:41:36;1.17;;;0.30;;
13951;SDS011;39535;52.192;9.886;2023-08-01T04:44:02;0.30;;;0.23;;
13951;SDS011;39535;52.192;9.886;2023-08-01T04:46:30;0.53;;;0.20;;
13951;SDS011;39535;52.192;9.886;2023-08-01T04:48:56;0.50;;;0.20;;
13951;SDS011;39535;52.192;9.886;2023-08-01T04:51:23;3.40;;;0.30;;
13951;SDS011;39535;52.192;9.886;2023-08-01T04:53:50;0.17;;;0.13;;
13951;SDS011;39535;52.192;9.886;2023-08-01T04:56:16;0.33;;;0.20;;
13951;SDS011;39535;52.192;9.886;2023-08-01T04:58:43;1.90;;;0.47;;
13951;SDS011;39535;52.192;9.886;2023-08-01T05:01:09;0.93;;;0.20;;
13951;SDS011;39535;52.192;9.886;2023-08-01T05:03:37;0.87;;;0.30;;
13951;SDS011;39535;52.192;9.886;2023-08-01T05:06:03;1.80;;;0.33;;
13951;SDS011;39535;52.192;9.886;2023-08-01T05:08:30;0.93;;;0.37;;
13951;SDS011;39535;52.192;9.886;2023-08-01T05:10:56;0.43;;;0.40;;
13951;SDS011;39535;52.192;9.886;2023-08-01T05:13:23;1.37;;;0.33;;
13951;SDS011;39535;52.192;9.886;2023-08-01T05:15:49;0.93;;;0.37;;
13951;SDS011;39535;52.192;9.886;2023-08-01T05:18:16;0.97;;;0.30;;
13951;SDS011;39535;52.192;9.886;2023-08-01T05:20:44;0.40;;;0.30;;
13951;SDS011;39535;52.192;9.886;2023-08-01T05:23:11;0.70;;;0.40;;
13951;SDS011;39535;52.192;9.886;2023-08-01T05:25:37;1.83;;;0.60;;
13951;SDS011;39535;52.192;9.886;2023-08-01T05:28:04;0.93;;;0.50;;
13951;SDS011;39535;52.192;9.886;2023-08-01T05:30:30;0.60;;;0.60;;
13951;SDS011;39535;52.192;9.886;2023-08-01T05:32:56;0.90;;;0.50;;
13951;SDS011;39535;52.192;9.886;2023-08-01T05:35:23;1.80;;;0.53;;
13951;SDS011;39535;52.192;9.886;2023-08-01T05:37:50;0.47;;;0.47;;
13951;SDS011;39535;52.192;9.886;2023-08-01T05:40:17;1.30;;;0.50;;
13951;SDS011;39535;52.192;9.886;2023-08-01T05:42:43;0.83;;;0.60;;
13951;SDS011;39535;52.192;9.886;2023-08-01T05:45:10;0.67;;;0.67;;
13951;SDS011;39535;52.192;9.886;2023-08-01T05:47:37;1.17;;;0.70;;
13951;SDS011;39535;52.192;9.886;2023-08-01T05:50:05;0.73;;;0.73;;
13951;SDS011;39535;52.192;9.886;2023-08-01T05:52:32;0.83;;;0.80;;
13951;SDS011;39535;52.192;9.886;2023-08-01T05:55:00;0.90;;;0.90;;
13951;SDS011;39535;52.192;9.886;2023-08-01T05:57:27;1.67;;;1.07;;
13951;SDS011;39535;52.192;9.886;2023-08-01T05:59:53;1.70;;;1.10;;
13951;SDS011;39535;52.192;9.886;2023-08-01T06:02:20;1.10;;;1.00;;
13951;SDS011;39535;52.192;9.886;2023-08-01T06:04:46;1.20;;;1.10;;
13951;SDS011;39535;52.192;9.886;2023-08-01T06:07:13;1.50;;;1.40;;
13951;SDS011;39535;52.192;9.886;2023-08-01T06:09:39;2.50;;;1.13;;
13951;SDS011;39535;52.192;9.886;2023-08-01T06:12:07;1.23;;;1.10;;
13951;SDS011;39535;52.192;9.886;2023-08-01T06:14:34;1.50;;;1.00;;
13951;SDS011;39535;52.192;9.886;2023-08-01T06:17:00;1.80;;;1.00;;
13951;SDS011;39535;52.192;9.886;2023-08-01T06:19:26;1.87;;;1.00;;
13951;SDS011;39535;52.192;9.886;2023-08-01T06:21:53;1.80;;;1.23;;
13951;SDS011;39535;52.192;9.886;2023-08-01T06:24:19;1.20;;;1.10;;
13951;SDS011;39535;52.192;9.886;2023-08-01T06:26:46;1.23;;;1.13;;
13951;SDS011;39535;52.192;9.886;2023-08-01T06:29:13;1.20;;;1.07;;
13951;SDS011;39535;52.192;9.886;2023-08-01T06:31:40;3.93;;;1.30;;
13951;SDS011;39535;52.192;9.886;2023-08-01T06:34:06;1.20;;;1.03;;
13951;SDS011;39535;52.192;9.886;2023-08-01T06:36:32;0.73;;;0.73;;
13951;SDS011;39535;52.192;9.886;2023-08-01T06:39:00;1.23;;;1.10;;
13951;SDS011;39535;52.192;9.886;2023-08-01T06:41:26;1.47;;;0.87;;
13951;SDS011;39535;52.192;9.886;2023-08-01T06:43:53;1.70;;;0.67;;
13951;SDS011;39535;52.192;9.886;2023-08-01T06:46:20;1.10;;;0.70;;
13951;SDS011;39535;52.192;9.886;2023-08-01T06:48:47;1.03;;;0.73;;
13951;SDS011;39535;52.192;9.886;2023-08-01T06:51:14;0.83;;;0.70;;
13951;SDS011;39535;52.192;9.886;2023-08-01T06:53:40;1.70;;;0.83;;
13951;SDS011;39535;52.192;9.886;2023-08-01T06:56:07;1.17;;;0.73;;
13951;SDS011;39535;52.192;9.886;2023-08-01T06:58:33;1.53;;;0.97;;
13951;SDS011;39535;52.192;9.886;2023-08-01T07:00:59;0.73;;;0.73;;
13951;SDS011;39535;52.192;9.886;2023-08-01T07:03:27;5.07;;;0.93;;
13951;SDS011;39535;52.192;9.886;2023-08-01T07:05:54;2.03;;;1.00;;
13951;SDS011;39535;52.192;9.886;2023-08-01T07:08:20;1.40;;;1.30;;
13951;SDS011;39535;52.192;9.886;2023-08-01T07:10:46;2.07;;;1.70;;
13951;SDS011;39535;52.192;9.886;2023-08-01T07:13:13;2.77;;;2.00;;
13951;SDS011;39535;52.192;9.886;2023-08-01T07:15:41;2.70;;;2.00;;
13951;SDS011;39535;52.192;9.886;2023-08-01T07:18:07;4.47;;;2.20;;
13951;SDS011;39535;52.192;9.886;2023-08-01T07:20:35;3.03;;;2.50;;
13951;SDS011;39535;52.192;9.886;2023-08-01T07:23:01;4.40;;;3.17;;
13951;SDS011;39535;52.192;9.886;2023-08-01T07:25:28;3.33;;;2.87;;
13951;SDS011;39535;52.192;9.886;2023-08-01T07:27:54;3.20;;;2.83;;
13951;SDS011;39535;52.192;9.886;2023-08-01T07:30:20;3.40;;;3.10;;
13951;SDS011;39535;52.192;9.886;2023-08-01T07:32:47;4.10;;;3.70;;
13951;SDS011;39535;52.192;9.886;2023-08-01T07:35:13;4.67;;;3.17;;
13951;SDS011;39535;52.192;9.886;2023-08-01T07:37:41;3.80;;;3.40;;
13951;SDS011;39535;52.192;9.886;2023-08-01T07:40:08;3.63;;;3.33;;
13951;SDS011;39535;52.192;9.886;2023-08-01T07:42:36;4.13;;;3.33;;
13951;SDS011;39535;52.192;9.886;2023-08-01T07:45:02;3.83;;;3.50;;
13951;SDS011;39535;52.192;9.886;2023-08-01T07:47:28;3.27;;;2.97;;
13951;SDS011;39535;52.192;9.886;2023-08-01T07:49:55;4.40;;;3.50;;
13951;SDS011;39535;52.192;9.886;2023-08-01T07:52:21;3.87;;;3.57;;
13951;SDS011;39535;52.192;9.886;2023-08-01T07:54:49;4.70;;;4.27;;
13951;SDS011;39535;52.192;9.886;2023-08-01T07:57:17;5.63;;;4.07;;
13951;SDS011;39535;52.192;9.886;2023-08-01T07:59:43;4.37;;;3.77;;
13951;SDS011;39535;52.192;9.886;2023-08-01T08:02:10;5.20;;;3.80;;
13951;SDS011;39535;52.192;9.886;2023-08-01T08:04:36;5.83;;;4.53;;
13951;SDS011;39535;52.192;9.886;2023-08-01T08:07:03;3.60;;;3.27;;
13951;SDS011;39535;52.192;9.886;2023-08-01T08:09:30;4.57;;;4.10;;
13951;SDS011;39535;52.192;9.886;2023-08-01T08:11:58;4.20;;;3.80;;
13951;SDS011;39535;52.192;9.886;2023-08-01T08:14:24;5.20;;;3.53;;
13951;SDS011;39535;52.192;9.886;2023-08-01T08:16:50;5.13;;;4.10;;
13951;SDS011;39535;52.192;9.886;2023-08-01T08:19:17;3.87;;;3.57;;
13951;SDS011;39535;52.192;9.886;2023-08-01T08:21:43;3.90;;;3.60;;
13951;SDS011;39535;52.192;9.886;2023-08-01T08:24:10;6.47;;;3.70;;
13951;SDS011;39535;52.192;9.886;2023-08-01T08:26:36;7.10;;;4.10;;
13951;SDS011;39535;52.192;9.886;2023-08-01T08:29:06;5.03;;;3.87;;
13951;SDS011;39535;52.192;9.886;2023-08-01T08:31:32;5.23;;;4.07;;
13951;SDS011;39535;52.192;9.886;2023-08-01T08:33:58;7.73;;;3.93;;
13951;SDS011;39535;52.192;9.886;2023-08-01T08:36:25;4.40;;;4.00;;
13951;SDS011;39535;52.192;9.886;2023-08-01T08:38:51;5.77;;;4.77;;
13951;SDS011;39535;52.192;9.886;2023-08-01T08:41:19;4.93;;;3.70;;
13951;SDS011;39535;52.192;9.886;2023-08-01T08:43:47;4.97;;;4.50;;
13951;SDS011;39535;52.192;9.886;2023-08-01T08:46:16;5.10;;;3.67;;
13951;SDS011;39535;52.192;9.886;2023-08-01T08:48:43;5.07;;;3.77;;
13951;SDS011;39535;52.192;9.886;2023-08-01T08:51:11;6.30;;;4.10;;
13951;SDS011;39535;52.192;9.886;2023-08-01T08:53:39;5.33;;;3.67;;
13951;SDS011;39535;52.192;9.886;2023-08-01T08:56:07;6.37;;;3.67;;
13951;SDS011;39535;52.192;9.886;2023-08-01T08:58:34;5.40;;;3.87;;
13951;SDS011;39535;52.192;9.886;2023-08-01T09:01:18;4.50;;;3.87;;
13951;SDS011;39535;52.192;9.886;2023-08-01T09:03:44;4.00;;;2.90;;
13951;SDS011;39535;52.192;9.886;2023-08-01T09:06:12;4.73;;;3.60;;
13951;SDS011;39535;52.192;9.886;2023-08-01T09:08:41;4.17;;;3.00;;
13951;SDS011;39535;52.192;9.886;2023-08-01T09:11:14;5.93;;;3.77;;
13951;SDS011;39535;52.192;9.886;2023-08-01T09:13:40;4.37;;;2.77;;
13951;SDS011;39535;52.192;9.886;2023-08-01T09:16:07;3.70;;;3.30;;
13951;SDS011;39535;52.192;9.886;2023-08-01T09:18:47;4.33;;;3.30;;
13951;SDS011;39535;52.192;9.886;2023-08-01T09:21:14;3.70;;;3.33;;
13951;SDS011;39535;52.192;9.886;2023-08-01T09:23:40;3.80;;;2.57;;
13951;SDS011;39535;52.192;9.886;2023-08-01T09:26:11;2.87;;;2.30;;
13951;SDS011;39535;52.192;9.886;2023-08-01T09:28:38;2.60;;;2.27;;
13951;SDS011;39535;52.192;9.886;2023-08-01T09:31:05;4.33;;;3.07;;
13951;SDS011;39535;52.192;9.886;2023-08-01T09:33:37;2.83;;;2.47;;
13951;SDS011;39535;52.192;9.886;2023-08-01T09:36:06;5.30;;;2.50;;
13951;SDS011;39535;52.192;9.886;2023-08-01T09:38:33;4.80;;;2.73;;
13951;SDS011;39535;52.192;9.886;2023-08-01T09:41:00;3.33;;;2.80;;
13951;SDS011;39535;52.192;9.886;2023-08-01T09:43:32;3.80;;;2.70;;
13951;SDS011;39535;52.192;9.886;2023-08-01T09:45:59;3.10;;;2.80;;
13951;SDS011;39535;52.192;9.886;2023-08-01T09:48:26;5.83;;;2.60;;
13951;SDS011;39535;52.192;9.886;2023-08-01T09:51:03;3.87;;;2.80;;
13951;SDS011;39535;52.192;9.886;2023-08-01T09:53:35;4.13;;;2.20;;
13951;SDS011;39535;52.192;9.886;2023-08-01T09:56:02;4.27;;;2.00;;
13951;SDS011;39535;52.192;9.886;2023-08-01T09:58:30;3.30;;;2.00;;
13951;SDS011;39535;52.192;9.886;2023-08-01T10:00:59;2.47;;;2.20;;
13951;SDS011;39535;52.192;9.886;2023-08-01T10:03:26;4.27;;;2.23;;
13951;SDS011;39535;52.192;9.886;2023-08-01T10:05:53;3.77;;;2.10;;
13951;SDS011;39535;52.192;9.886;2023-08-01T10:08:22;2.93;;;2.40;;
13951;SDS011;39535;52.192;9.886;2023-08-01T10:10:49;3.63;;;1.97;;
13951;SDS011;39535;52.192;9.886;2023-08-01T10:13:16;3.37;;;2.20;;
13951;SDS011;39535;52.192;9.886;2023-08-01T10:15:44;3.67;;;2.37;;
13951;SDS011;39535;52.192;9.886;2023-08-01T10:18:11;4.00;;;2.30;;
13951;SDS011;39535;52.192;9.886;2023-08-01T10:20:38;3.73;;;2.73;;
13951;SDS011;39535;52.192;9.886;2023-08-01T10:23:05;2.37;;;2.00;;
13951;SDS011;39535;52.192;9.886;2023-08-01T10:25:34;3.10;;;2.40;;
13951;SDS011;39535;52.192;9.886;2023-08-01T10:28:03;3.10;;;1.70;;
13951;SDS011;39535;52.192;9.886;2023-08-01T10:30:31;2.77;;;1.73;;
13951;SDS011;39535;52.192;9.886;2023-08-01T10:32:59;2.27;;;1.70;;
13951;SDS011;39535;52.192;9.886;2023-08-01T10:35:36;3.63;;;1.87;;
13951;SDS011;39535;52.192;9.886;2023-08-01T10:38:07;4.80;;;2.23;;
13951;SDS011;39535;52.192;9.886;2023-08-01T10:40:37;1.80;;;1.70;;
13951;SDS011;39535;52.192;9.886;2023-08-01T10:43:04;2.30;;;1.87;;
13951;SDS011;39535;52.192;9.886;2023-08-01T10:45:34;2.30;;;2.07;;
13951;SDS011;39535;52.192;9.886;2023-08-01T10:48:07;2.07;;;1.53;;
13951;SDS011;39535;52.192;9.886;2023-08-01T10:50:36;3.10;;;1.90;;
13951;SDS011;39535;52.192;9.886;2023-08-01T10:53:04;3.10;;;2.80;;
13951;SDS011;39535;52.192;9.886;2023-08-01T10:58:17;2.67;;;1.70;;
13951;SDS011;39535;52.192;9.886;2023-08-01T11:00:43;3.93;;;1.70;;
13951;SDS011;39535;52.192;9.886;2023-08-01T11:03:10;1.30;;;1.20;;
13951;SDS011;39535;52.192;9.886;2023-08-01T11:05:36;4.17;;;1.33;;
13951;SDS011;39535;52.192;9.886;2023-08-01T11:08:03;3.37;;;1.83;;
13951;SDS011;39535;52.192;9.886;2023-08-01T11:10:31;3.13;;;2.07;;
13951;SDS011;39535;52.192;9.886;2023-08-01T11:13:00;2.50;;;1.23;;
13951;SDS011;39535;52.192;9.886;2023-08-01T11:15:26;1.23;;;1.10;;
13951;SDS011;39535;52.192;9.886;2023-08-01T11:17:53;2.53;;;1.53;;
13951;SDS011;39535;52.192;9.886;2023-08-01T11:20:21;2.07;;;1.50;;
13951;SDS011;39535;52.192;9.886;2023-08-01T11:22:49;1.97;;;1.63;;
13951;SDS011;39535;52.192;9.886;2023-08-01T11:25:17;2.57;;;1.50;;
13951;SDS011;39535;52.192;9.886;2023-08-01T11:27:44;2.77;;;1.93;;
13951;SDS011;39535;52.192;9.886;2023-08-01T11:30:12;2.00;;;1.90;;
13951;SDS011;39535;52.192;9.886;2023-08-01T11:32:38;2.13;;;2.03;;
13951;SDS011;39535;52.192;9.886;2023-08-01T11:35:05;2.63;;;1.87;;
13951;SDS011;39535;52.192;9.886;2023-08-01T11:37:32;2.67;;;1.77;;
13951;SDS011;39535;52.192;9.886;2023-08-01T11:39:59;1.77;;;1.60;;
13951;SDS011;39535;52.192;9.886;2023-08-01T11:42:29;2.67;;;1.70;;
13951;SDS011;39535;52.192;9.886;2023-08-01T11:45:06;2.63;;;1.70;;
13951;SDS011;39535;52.192;9.886;2023-08-01T11:47:35;4.20;;;1.80;;
13951;SDS011;39535;52.192;9.886;2023-08-01T11:50:02;2.53;;;1.80;;
13951;SDS011;39535;52.192;9.886;2023-08-01T11:52:28;3.17;;;1.97;;
13951;SDS011;39535;52.192;9.886;2023-08-01T11:54:55;2.97;;;2.10;;
13951;SDS011;39535;52.192;9.886;2023-08-01T11:57:22;3.63;;;1.80;;
13951;SDS011;39535;52.192;9.886;2023-08-01T11:59:49;2.83;;;1.83;;
13951;SDS011;39535;52.192;9.886;2023-08-01T12:02:20;2.20;;;2.00;;
13951;SDS011;39535;52.192;9.886;2023-08-01T12:04:49;3.13;;;2.00;;
13951;SDS011;39535;52.192;9.886;2023-08-01T12:07:16;2.03;;;1.90;;
13951;SDS011;39535;52.192;9.886;2023-08-01T12:09:43;1.80;;;1.70;;
13951;SDS011;39535;52.192;9.886;2023-08-01T12:12:09;3.20;;;1.93;;
13951;SDS011;39535;52.192;9.886;2023-08-01T12:14:39;2.37;;;1.80;;
13951;SDS011;39535;52.192;9.886;2023-08-01T12:17:05;2.17;;;2.00;;
13951;SDS011;39535;52.192;9.886;2023-08-01T12:19:32;2.80;;;1.80;;
13951;SDS011;39535;52.192;9.886;2023-08-01T12:22:00;2.77;;;2.30;;
13951;SDS011;39535;52.192;9.886;2023-08-01T12:24:26;2.47;;;2.27;;
13951;SDS011;39535;52.192;9.886;2023-08-01T12:26:53;2.77;;;2.57;;
13951;SDS011;39535;52.192;9.886;2023-08-01T12:29:19;3.80;;;2.83;;
13951;SDS011;39535;52.192;9.886;2023-08-01T12:31:46;3.20;;;2.90;;
13951;SDS011;39535;52.192;9.886;2023-08-01T12:34:12;2.70;;;2.50;;
13951;SDS011;39535;52.192;9.886;2023-08-01T12:36:38;3.83;;;3.30;;
13951;SDS011;39535;52.192;9.886;2023-08-01T12:39:06;3.20;;;3.00;;
13951;SDS011;39535;52.192;9.886;2023-08-01T12:41:35;3.57;;;3.00;;
13951;SDS011;39535;52.192;9.886;2023-08-01T12:44:02;2.97;;;2.77;;
13951;SDS011;39535;52.192;9.886;2023-08-01T12:46:28;5.33;;;2.97;;
13951;SDS011;39535;52.192;9.886;2023-08-01T12:48:55;4.37;;;2.70;;
13951;SDS011;39535;52.192;9.886;2023-08-01T12:51:21;3.00;;;2.67;;
13951;SDS011;39535;52.192;9.886;2023-08-01T12:53:48;3.37;;;3.07;;
13951;SDS011;39535;52.192;9.886;2023-08-01T12:56:15;4.13;;;2.70;;
13951;SDS011;39535;52.192;9.886;2023-08-01T12:58:42;2.57;;;2.33;;
13951;SDS011;39535;52.192;9.886;2023-08-01T13:01:08;2.50;;;2.30;;
13951;SDS011;39535;52.192;9.886;2023-08-01T13:03:35;3.00;;;2.30;;
13951;SDS011;39535;52.192;9.886;2023-08-01T13:06:01;2.43;;;2.10;;
13951;SDS011;39535;52.192;9.886;2023-08-01T13:08:28;2.63;;;2.17;;
13951;SDS011;39535;52.192;9.886;2023-08-01T13:10:55;2.57;;;2.13;;
13951;SDS011;39535;52.192;9.886;2023-08-01T13:13:25;2.07;;;1.90;;
13951;SDS011;39535;52.192;9.886;2023-08-01T13:15:52;2.20;;;2.00;;
13951;SDS011;39535;52.192;9.886;2023-08-01T13:18:18;2.70;;;1.37;;
13951;SDS011;39535;52.192;9.886;2023-08-01T13:20:45;2.10;;;1.90;;
13951;SDS011;39535;52.192;9.886;2023-08-01T13:23:11;2.00;;;1.73;;
13951;SDS011;39535;52.192;9.886;2023-08-01T13:25:37;1.63;;;1.47;;
13951;SDS011;39535;52.192;9.886;2023-08-01T13:28:04;1.87;;;1.70;;
13951;SDS011;39535;52.192;9.886;2023-08-01T13:30:32;1.50;;;1.40;;
13951;SDS011;39535;52.192;9.886;2023-08-01T13:32:58;1.87;;;1.60;;
13951;SDS011;39535;52.192;9.886;2023-08-01T13:35:24;1.53;;;1.17;;
13951;SDS011;39535;52.192;9.886;2023-08-01T13:37:51;1.97;;;1.87;;
13951;SDS011;39535;52.192;9.886;2023-08-01T13:40:17;1.93;;;1.73;;
13951;SDS011;39535;52.192;9.886;2023-08-01T13:42:44;3.73;;;2.17;;
13951;SDS011;39535;52.192;9.886;2023-08-01T13:45:10;2.47;;;2.27;;
13951;SDS011;39535;52.192;9.886;2023-08-01T13:47:38;3.20;;;2.33;;
13951;SDS011;39535;52.192;9.886;2023-08-01T13:50:04;2.13;;;1.93;;
13951;SDS011;39535;52.192;9.886;2023-08-01T13:52:31;5.73;;;2.63;;
13951;SDS011;39535;52.192;9.886;2023-08-01T13:54:58;4.33;;;2.90;;
13951;SDS011;39535;52.192;9.886;2023-08-01T13:57:25;4.37;;;2.57;;
13951;SDS011;39535;52.192;9.886;2023-08-01T13:59:51;2.83;;;2.43;;
13951;SDS011;39535;52.192;9.886;2023-08-01T14:02:18;3.13;;;2.73;;
13951;SDS011;39535;52.192;9.886;2023-08-01T14:04:46;5.77;;;4.30;;
13951;SDS011;39535;52.192;9.886;2023-08-01T14:07:14;4.27;;;3.00;;
13951;SDS011;39535;52.192;9.886;2023-08-01T14:09:41;4.50;;;2.90;;
13951;SDS011;39535;52.192;9.886;2023-08-01T14:12:08;4.33;;;3.10;;
13951;SDS011;39535;52.192;9.886;2023-08-01T14:14:34;4.30;;;2.93;;
13951;SDS011;39535;52.192;9.886;2023-08-01T14:17:00;2.97;;;2.10;;
13951;SDS011;39535;52.192;9.886;2023-08-01T14:19:27;3.23;;;2.30;;
13951;SDS011;39535;52.192;9.886;2023-08-01T14:21:56;2.90;;;1.10;;
13951;SDS011;39535;52.192;9.886;2023-08-01T14:24:23;2.77;;;0.97;;
13951;SDS011;39535;52.192;9.886;2023-08-01T14:26:49;3.47;;;1.00;;
13951;SDS011;39535;52.192;9.886;2023-08-01T14:29:16;4.20;;;1.47;;
13951;SDS011;39535;52.192;9.886;2023-08-01T14:31:43;2.30;;;1.40;;
13951;SDS011;39535;52.192;9.886;2023-08-01T14:34:10;2.30;;;1.30;;
13951;SDS011;39535;52.192;9.886;2023-08-01T14:36:36;1.83;;;1.10;;
13951;SDS011;39535;52.192;9.886;2023-08-01T14:39:04;0.90;;;0.90;;
13951;SDS011;39535;52.192;9.886;2023-08-01T14:41:30;1.80;;;1.17;;
13951;SDS011;39535;52.192;9.886;2023-08-01T14:43:57;1.63;;;1.00;;
13951;SDS011;39535;52.192;9.886;2023-08-01T14:46:23;3.17;;;1.20;;
13951;SDS011;39535;52.192;9.886;2023-08-01T14:48:50;2.57;;;1.23;;
13951;SDS011;39535;52.192;9.886;2023-08-01T14:51:16;1.20;;;1.10;;
13951;SDS011;39535;52.192;9.886;2023-08-01T14:53:43;1.93;;;1.30;;